EGVNEGDR

Guest
Details From EGVN - Brize Norton Ab
To EGDR - Culdrose
Flight Number -
Tags Generated
Created
Modified
Stats Distance 171 nm / 316 km
Max Altitude 0 ft / 0 m
Waypoints 2
Social Downloads 1
Likes 0
Share VATSIM

Download

Looking for another format? Having issues loading an existing format? Contact us
Advertisement - Login to hide

Notes

Generated

Route

EGVN EGDR

ID Type Via Altitude Latitude Longitude Leg Dist Tot Dist Heading (true) Name
O EGVN APT - 0 ft / 0 m 51.74607˚ -1.60421˚ - 0 nm - -
O EGDR APT - 0 ft / 0 m 50.08521˚ -5.26347˚ 170 nm 170 nm 236° / 233° -

Altitude Profile

Advertisement - Login to hide

Weather


0- 5 10 15 20 25 30 35+ Temperature / ° C

Clouds and Precipitation
Forecast for 2018-05-26 12:00 UTC. Updated 3 hours ago

Ground ~20,000 ft ~40,000 ft Winds

EGVN

Details ICAO EGVN (BZZ)
Name RAF Brize Norton
Region United Kingdom
Timezone Europe/London (UTC+1.0)
Stats Elevation 289 ft / 88 m (AMSL)
Location 51.749979° -1.582958°
Runways 1
Magnetic Variation 0.922° W

METAR

EGVN 261426Z 07018KT 9999 FEW023 23/16 Q1018 BLU NOSIG

Decode

TAF

TAF EGVN 261324Z 2615/2715 05012KT 9999 FEW020 PROB30 TEMPO 2615/2617 5000 SHRA SCT018CB TEMPO 2621/2715 7000 SHRA SCT020CB PROB40 TEMPO 2621/2706 06015G30KT 2500 TSGR +SHRA SCT010

Decode

Departure Runways

ID Width Length Bearing (true) Bearing (mag) Surface Threshold Offset Overrun Length
08 184 ft / 56 m 10,016 ft / 3,053 m 73.42° 74.34° Asphalt 0 ft / 0 m 459 ft / 140 m
26 184 ft / 56 m 10,016 ft / 3,053 m 253.46° 254.38° Asphalt 0 ft / 0 m 577 ft / 176 m

EGDR

Details ICAO EGDR
Name RNAS Culdrose
Region United Kingdom
Timezone Europe/London (UTC+1.0)
Stats Elevation 267 ft / 81 m (AMSL)
Location 50.086000° -5.254167°
Runways 3
Magnetic Variation 2.022° W

METAR

EGDR 261350Z AUTO 04012KT 9999 // FEW032/// BKN050/// 20/10 Q1015

Decode

TAF

Not found

Destination Runways

ID Width Length Bearing (true) Bearing (mag) Surface Threshold Offset Overrun Length
07 141 ft / 43 m 3,424 ft / 1,044 m 62.86° 64.88° Asphalt 0 ft / 0 m 0 ft / 0 m
12 148 ft / 45 m 6,006 ft / 1,831 m 112.85° 114.87° Asphalt 0 ft / 0 m 115 ft / 35 m
18 141 ft / 43 m 3,465 ft / 1,056 m 178.54° 180.56° Asphalt 0 ft / 0 m 0 ft / 0 m
25 141 ft / 43 m 3,424 ft / 1,044 m 242.87° 244.89° Asphalt 0 ft / 0 m 0 ft / 0 m
30 148 ft / 45 m 6,006 ft / 1,831 m 292.87° 294.89° Asphalt 0 ft / 0 m 141 ft / 43 m
36 141 ft / 43 m 3,465 ft / 1,056 m 358.54° 0.56° Asphalt 0 ft / 0 m 0 ft / 0 m